»·PEaware :: N85SM KSMX-KBFL

N85SM :: KSMX-KBFL

FLIGHT INFORMATION

Flight Status: Arrived
Operator: Privately registered:
United States
More flights under this callsign
Pilot: Sebastian M. (11610)
Aircraft: CESSNA 172 SKYHAWK
(C172)
More flights by this aircraft type
Origin: KSMX Santa Maria Pub/Capt Hancock
United States
Destination: KBFL Meadows
United States
More flights between these airports :: More routes between these airports
Route:
File this flight plan on PilotEdge
Remarks: CAT 5
Altitude:
(Current/Filed)
5,500ft
Speed:
(Current/Filed)
120kts
Departed: 28-Sep-17 04:08 PM
Arrived: 28-Sep-17 04:55 PM
Distance/Time
Traveled:
76nm/0:47
Distance/Time
To Go:
Arrived

Flight Plot

Page will automatically refresh every two minutes.


Map Options




Map Legend


Flown Route
Filed Route
Departure Airport
Arrival Airport
Navaid (VOR, NDB)
Fix

Horizontal Profiles

Position Reports

Time Latitude Longitude Heading Altitude Ground
Speed
28-Sep-17 15:59 34.896806 -120.445896 273 264ft 0kts
28-Sep-17 16:00 34.896806 -120.445896 273 264ft 0kts
28-Sep-17 16:01 34.896806 -120.445896 273 264ft 0kts
28-Sep-17 16:02 34.896806 -120.445896 273 264ft 0kts
28-Sep-17 16:03 34.896940 -120.446904 229 264ft 0kts
28-Sep-17 16:04 34.896940 -120.446904 229 264ft 0kts
28-Sep-17 16:05 34.896940 -120.446904 229 264ft 0kts
28-Sep-17 16:06 34.896703 -120.447222 226 264ft 9kts
28-Sep-17 16:07 34.893780 -120.444931 180 264ft 18kts
28-Sep-17 16:08 34.893216 -120.444939 189 264ft 0kts
28-Sep-17 16:09 34.893216 -120.444939 189 264ft 0kts
28-Sep-17 16:10 34.893216 -120.444939 189 264ft 0kts
28-Sep-17 16:11 34.893075 -120.446128 308 264ft 9kts
28-Sep-17 16:12 34.902562 -120.457493 320 596ft 86kts
28-Sep-17 16:13 34.921189 -120.462108 49 1251ft 86kts
28-Sep-17 16:14 34.936097 -120.442374 65 2132ft 79kts
28-Sep-17 16:15 34.943902 -120.417357 65 3114ft 81kts
28-Sep-17 16:16 34.951680 -120.392159 66 4096ft 79kts
28-Sep-17 16:17 34.959649 -120.366591 66 4964ft 87kts
28-Sep-17 16:18 34.968865 -120.337418 66 5532ft 108kts
28-Sep-17 16:19 34.980419 -120.301672 66 5550ft 110kts
28-Sep-17 16:20 34.991037 -120.268915 66 5551ft 101kts
28-Sep-17 16:21 35.001002 -120.237601 67 5552ft 98kts
28-Sep-17 16:22 35.015204 -120.209943 56 5558ft 99kts
28-Sep-17 16:23 35.029641 -120.177519 61 5560ft 116kts
28-Sep-17 16:24 35.043679 -120.141374 63 5490ft 118kts
28-Sep-17 16:25 35.056144 -120.107916 63 5830ft 97kts
28-Sep-17 16:26 35.066605 -120.079589 62 6392ft 91kts
28-Sep-17 16:27 35.077256 -120.050798 63 6991ft 94kts
28-Sep-17 16:28 35.088015 -120.021376 63 7487ft 102kts
28-Sep-17 16:29 35.100721 -119.986422 62 7493ft 117kts
28-Sep-17 16:30 35.113570 -119.950857 64 7494ft 117kts
28-Sep-17 16:31 35.126724 -119.914623 63 7492ft 117kts
28-Sep-17 16:32 35.139928 -119.878205 64 7491ft 117kts
28-Sep-17 16:33 35.153138 -119.841699 63 7491ft 117kts
28-Sep-17 16:34 35.165079 -119.808904 63 7492ft 118kts
28-Sep-17 16:35 35.178273 -119.772357 65 7490ft 117kts
28-Sep-17 16:36 35.191476 -119.735853 64 7492ft 118kts
28-Sep-17 16:37 35.204621 -119.699454 62 7490ft 117kts
28-Sep-17 16:38 35.217759 -119.663009 64 7493ft 117kts
28-Sep-17 16:39 35.230845 -119.626796 64 7489ft 117kts
28-Sep-17 16:40 35.244152 -119.589631 63 7069ft 120kts
28-Sep-17 16:41 35.257450 -119.552598 63 6473ft 119kts
28-Sep-17 16:42 35.270686 -119.515730 65 5874ft 118kts
28-Sep-17 16:43 35.283221 -119.480750 64 5546ft 99kts
28-Sep-17 16:44 35.293744 -119.451473 64 5558ft 95kts
28-Sep-17 16:45 35.305499 -119.418717 63 5558ft 114kts
28-Sep-17 16:46 35.318510 -119.382317 64 5555ft 116kts
28-Sep-17 16:47 35.331955 -119.344543 65 4989ft 121kts
28-Sep-17 16:48 35.344986 -119.307960 65 4391ft 116kts
28-Sep-17 16:49 35.357826 -119.271943 65 3793ft 115kts
28-Sep-17 16:50 35.370402 -119.236596 64 3204ft 113kts
28-Sep-17 16:51 35.382726 -119.201955 64 2603ft 109kts
28-Sep-17 16:52 35.381712 -119.164715 91 2006ft 110kts
28-Sep-17 16:53 35.379755 -119.128384 91 1552ft 100kts
28-Sep-17 16:54 35.377711 -119.096943 90 1514ft 94kts
28-Sep-17 16:55 35.375432 -119.065053 90 1509ft 93kts
28-Sep-17 16:56 35.387584 -119.043920 27 1607ft 67kts
28-Sep-17 16:57 35.407005 -119.029895 351 1116ft 74kts
28-Sep-17 16:58 35.421560 -119.044921 316 686ft 62kts
28-Sep-17 16:59 35.432696 -119.058255 316 496ft 39kts
28-Sep-17 17:00 35.435717 -119.058873 45 496ft 12kts
28-Sep-17 17:01 35.434304 -119.054579 137 496ft 20kts
28-Sep-17 17:02 35.433100 -119.051678 27 496ft 10kts

Navigation Log

Ident Type
1. KSMX Airport
2. KBFL Airport